createdAt,value
2023-03-02T00:04:00.634Z,1.30
2023-03-02T00:09:22.642Z,1.20
2023-03-02T00:14:45.247Z,1.35
2023-03-02T00:20:10.469Z,1.10
2023-03-02T00:25:32.204Z,1.10
2023-03-02T00:30:53.931Z,1.00
2023-03-02T00:36:19.492Z,1.00
2023-03-02T00:41:41.144Z,0.80
2023-03-02T00:47:02.878Z,1.10
2023-03-02T00:52:24.677Z,1.30
2023-03-02T00:57:55.050Z,1.00
2023-03-02T01:03:16.887Z,1.25
2023-03-02T01:08:38.663Z,1.30
2023-03-02T01:14:00.360Z,1.25
2023-03-02T01:19:22.158Z,1.15
2023-03-02T01:24:43.910Z,1.10
2023-03-02T01:30:06.425Z,1.10
2023-03-02T01:35:28.124Z,1.00
2023-03-02T01:40:49.904Z,0.77
2023-03-02T01:46:22.412Z,1.05
2023-03-02T01:51:47.645Z,1.30
2023-03-02T01:57:10.967Z,1.10
2023-03-02T02:02:33.096Z,1.00
2023-03-02T02:07:54.845Z,1.10
2023-03-02T02:13:16.553Z,0.85
2023-03-02T02:18:41.145Z,0.98
2023-03-02T02:24:21.036Z,1.00
2023-03-02T02:29:46.995Z,0.90
2023-03-02T02:35:27.442Z,1.10
2023-03-02T02:40:54.601Z,1.27
2023-03-02T02:46:16.764Z,0.90
2023-03-02T02:51:38.609Z,1.10
2023-03-02T02:57:03.404Z,1.00
2023-03-02T03:02:27.940Z,1.10
2023-03-02T03:07:49.709Z,1.15
2023-03-02T03:13:12.577Z,0.90
2023-03-02T03:18:34.326Z,1.48
2023-03-02T03:23:56.125Z,1.00
2023-03-02T03:29:19.325Z,1.08
2023-03-02T03:34:41.257Z,0.95
2023-03-02T03:40:03.816Z,0.90
2023-03-02T03:45:25.643Z,1.00
2023-03-02T03:50:47.466Z,1.20
2023-03-02T03:56:09.773Z,1.10
2023-03-02T04:01:35.192Z,1.25
2023-03-02T04:06:57.640Z,1.00
2023-03-02T04:12:19.390Z,1.30
2023-03-02T04:17:41.136Z,0.98
2023-03-02T04:23:02.914Z,1.00
2023-03-02T04:28:24.645Z,0.93
2023-03-02T04:33:46.374Z,1.10
2023-03-02T04:39:09.217Z,0.90
2023-03-02T04:44:30.973Z,1.05
2023-03-02T04:49:54.922Z,1.10
2023-03-02T04:55:23.048Z,0.95
2023-03-02T05:00:44.784Z,1.00
2023-03-02T05:06:07.002Z,1.05
2023-03-02T05:11:28.747Z,1.10
2023-03-02T05:16:51.003Z,1.15
2023-03-02T05:22:12.903Z,0.95
2023-03-02T05:27:34.691Z,1.17
2023-03-02T05:32:56.492Z,1.20
2023-03-02T05:38:18.311Z,1.00
2023-03-02T05:43:40.980Z,1.08
2023-03-02T05:49:02.809Z,1.30
2023-03-02T05:54:24.780Z,1.30
2023-03-02T05:59:46.735Z,1.30
2023-03-02T06:05:11.820Z,1.10
2023-03-02T06:10:34.892Z,1.20
2023-03-02T06:15:57.173Z,0.90
2023-03-02T06:21:19.031Z,1.10
2023-03-02T06:26:40.822Z,1.15
2023-03-02T06:32:02.665Z,1.42
2023-03-02T06:37:24.546Z,1.92
2023-03-02T06:42:46.362Z,1.60
2023-03-02T06:48:08.384Z,1.80
2023-03-02T06:53:30.174Z,1.80
2023-03-02T06:58:51.921Z,1.83
2023-03-02T07:04:13.629Z,2.58
2023-03-02T07:09:35.929Z,2.60
2023-03-02T07:14:57.736Z,2.65
2023-03-02T07:20:19.629Z,3.30
2023-03-02T07:25:41.338Z,3.00
2023-03-02T07:31:03.175Z,2.72
2023-03-02T07:36:26.462Z,2.88
2023-03-02T07:41:48.291Z,3.00
2023-03-02T07:47:10.187Z,2.78
2023-03-02T07:52:31.970Z,2.40
2023-03-02T07:57:53.767Z,2.75
2023-03-02T08:03:15.553Z,2.42
2023-03-02T08:08:37.681Z,2.20
2023-03-02T08:14:01.558Z,2.20
2023-03-02T08:19:23.272Z,2.40
2023-03-02T08:24:45.088Z,2.25
2023-03-02T08:30:08.559Z,2.25
2023-03-02T08:35:30.319Z,2.28
2023-03-02T08:40:53.499Z,2.30
2023-03-02T08:46:18.507Z,2.70
2023-03-02T08:51:40.232Z,2.40
2023-03-02T08:57:03.383Z,2.50
2023-03-02T09:02:25.265Z,2.70
2023-03-02T09:07:47.114Z,2.60
2023-03-02T09:13:08.881Z,2.50
2023-03-02T09:18:31.101Z,2.63
2023-03-02T09:23:55.907Z,2.30
2023-03-02T09:29:17.606Z,2.43
2023-03-02T09:34:39.302Z,2.90
2023-03-02T09:40:01.278Z,2.47
2023-03-02T09:45:48.092Z,2.58
2023-03-02T09:51:24.764Z,3.10
2023-03-02T09:56:54.553Z,2.92
2023-03-02T10:02:36.152Z,2.63
2023-03-02T10:07:59.462Z,3.03
2023-03-02T10:13:31.154Z,2.80
2023-03-02T10:19:04.974Z,2.67
2023-03-02T10:24:41.225Z,3.08
2023-03-02T10:30:19.564Z,3.28
2023-03-02T10:35:49.652Z,2.45
2023-03-02T10:41:18.874Z,2.70
2023-03-02T10:46:45.624Z,2.53
2023-03-02T10:52:18.284Z,3.10
2023-03-02T10:57:42.044Z,2.90
2023-03-02T11:03:20.301Z,3.53
2023-03-02T11:08:42.012Z,2.95
2023-03-02T11:14:15.954Z,3.83
2023-03-02T11:19:41.278Z,3.53
2023-03-02T11:25:08.169Z,3.40
2023-03-02T11:30:34.359Z,2.88
2023-03-02T11:36:04.034Z,2.90
2023-03-02T11:41:31.055Z,2.30
2023-03-02T11:47:00.646Z,2.90
2023-03-02T11:52:26.425Z,2.80
2023-03-02T11:57:55.331Z,2.60
2023-03-02T12:03:16.958Z,2.30
2023-03-02T12:08:42.488Z,2.38
2023-03-02T12:19:38.666Z,2.75
2023-03-02T12:25:20.466Z,2.53
2023-03-02T12:30:42.221Z,2.83
2023-03-02T12:36:12.895Z,3.15
2023-03-02T12:42:08.504Z,2.50
2023-03-02T12:47:32.060Z,2.33
2023-03-02T12:53:03.299Z,2.40
2023-03-02T12:58:29.401Z,2.35
2023-03-02T13:03:53.078Z,2.75
2023-03-02T13:09:15.737Z,2.70
2023-03-02T13:14:41.488Z,2.90
2023-03-02T13:20:05.157Z,2.47
2023-03-02T13:25:31.405Z,2.30
2023-03-02T13:31:03.113Z,2.78
2023-03-02T13:36:38.740Z,3.00
2023-03-02T13:42:03.108Z,2.40
2023-03-02T13:47:24.994Z,2.83
2023-03-02T13:52:46.932Z,2.78
2023-03-02T13:58:16.522Z,2.53
2023-03-02T14:03:38.308Z,2.33
2023-03-02T14:09:00.089Z,2.53
2023-03-02T14:14:25.068Z,3.33
2023-03-02T14:19:52.961Z,3.47
2023-03-02T14:25:15.371Z,3.67
2023-03-02T14:30:37.339Z,2.83
2023-03-02T14:35:59.562Z,3.17
2023-03-02T14:41:24.422Z,3.40
2023-03-02T14:46:46.354Z,3.00
2023-03-02T14:52:27.389Z,2.97
2023-03-02T14:58:03.711Z,2.90
2023-03-02T15:03:29.608Z,2.88
2023-03-02T15:08:51.518Z,2.67
2023-03-02T15:14:13.298Z,2.78
2023-03-02T15:19:35.039Z,2.88
2023-03-02T15:24:56.935Z,2.58
2023-03-02T15:30:19.696Z,2.70
2023-03-02T15:35:41.704Z,2.90
2023-03-02T15:41:12.613Z,2.80
2023-03-02T15:46:34.664Z,2.33
2023-03-02T15:52:00.100Z,2.30
2023-03-02T15:57:21.816Z,2.35
2023-03-02T16:02:43.722Z,2.38
2023-03-02T16:08:05.774Z,2.20
2023-03-02T16:13:28.400Z,3.00
2023-03-02T16:18:55.091Z,2.80
2023-03-02T16:24:17.302Z,2.50
2023-03-02T16:29:39.044Z,2.55
2023-03-02T16:35:00.812Z,1.75
2023-03-02T16:40:23.076Z,2.45
2023-03-02T16:45:44.861Z,2.40
2023-03-02T16:51:07.970Z,2.90
2023-03-02T16:56:29.779Z,3.03
2023-03-02T17:01:51.544Z,3.20
2023-03-02T17:07:13.614Z,2.88
2023-03-02T17:12:35.444Z,3.13
2023-03-02T17:17:57.217Z,3.15
2023-03-02T17:23:19.102Z,2.53
2023-03-02T17:28:40.959Z,3.03
2023-03-02T17:34:02.901Z,2.72
2023-03-02T17:39:24.768Z,2.63
2023-03-02T17:44:46.611Z,2.42
2023-03-02T17:50:09.029Z,2.10
2023-03-02T17:55:31.113Z,2.25
2023-03-02T18:00:54.026Z,2.10
2023-03-02T18:06:18.194Z,2.05
2023-03-02T18:11:42.447Z,1.88
2023-03-02T18:17:05.125Z,1.98
2023-03-02T18:22:26.828Z,2.35
2023-03-02T18:27:48.612Z,1.92
2023-03-02T18:33:10.736Z,2.00
2023-03-02T18:38:34.427Z,1.98
2023-03-02T18:43:56.379Z,2.30
2023-03-02T18:49:18.027Z,1.80
2023-03-02T18:54:39.817Z,2.15
2023-03-02T19:00:01.697Z,2.63
2023-03-02T19:05:27.100Z,1.92
2023-03-02T19:10:49.852Z,2.13
2023-03-02T19:16:11.862Z,1.85
2023-03-02T19:21:33.593Z,2.38
2023-03-02T19:26:55.453Z,2.67
2023-03-02T19:32:17.247Z,2.13
2023-03-02T19:37:38.964Z,2.00
2023-03-02T19:43:01.386Z,2.20
2023-03-02T19:48:23.278Z,2.10
2023-03-02T19:53:47.217Z,1.92
2023-03-02T19:59:10.379Z,2.33
2023-03-02T20:04:32.743Z,1.60
2023-03-02T20:09:55.954Z,2.00
2023-03-02T20:15:17.859Z,1.98
2023-03-02T20:20:39.612Z,2.20
2023-03-02T20:26:01.306Z,2.10
2023-03-02T20:31:25.051Z,1.90
2023-03-02T20:36:47.211Z,2.10
2023-03-02T20:42:10.256Z,2.45
2023-03-02T20:47:32.611Z,1.60
2023-03-02T20:52:54.531Z,1.95
2023-03-02T20:58:16.347Z,2.00
2023-03-02T21:03:39.252Z,1.92
2023-03-02T21:09:06.111Z,2.22
2023-03-02T21:14:27.814Z,2.28
2023-03-02T21:19:49.517Z,2.20
2023-03-02T21:25:11.463Z,2.70
2023-03-02T21:30:35.003Z,2.28
2023-03-02T21:35:56.788Z,2.08
2023-03-02T21:41:19.417Z,2.22
2023-03-02T21:46:41.236Z,2.00
2023-03-02T21:52:04.239Z,2.22
2023-03-02T21:57:26.090Z,2.33
2023-03-02T22:02:48.335Z,2.15
2023-03-02T22:08:16.853Z,2.42
2023-03-02T22:13:38.567Z,2.47
2023-03-02T22:19:00.589Z,2.38
2023-03-02T22:24:25.987Z,2.20
2023-03-02T22:35:25.949Z,2.30
2023-03-02T22:40:47.749Z,2.78
2023-03-02T22:46:21.949Z,2.55
2023-03-02T22:51:45.241Z,2.10
2023-03-02T22:57:16.934Z,2.88
2023-03-02T23:02:43.067Z,3.00
2023-03-02T23:08:20.050Z,3.40
2023-03-02T23:13:41.793Z,2.85
2023-03-02T23:19:04.255Z,3.03
2023-03-02T23:24:26.194Z,2.88
2023-03-02T23:29:47.939Z,2.70
2023-03-02T23:35:10.550Z,3.10
2023-03-02T23:40:32.262Z,3.00
2023-03-02T23:45:54.053Z,3.50
2023-03-02T23:51:16.249Z,3.72
2023-03-02T23:56:38.415Z,3.35
